Terminal Aerodrome Forecast
Issued by NWS

Home | Current Version | Previous Version | Graphics & Text | Print | Product List | Glossary On
Versions: 1 2 3 4 5 6 7 8 9 10 11 12
890
FTUS43 KICT 031737
TAFCNU
TAF
KCNU 031737Z 0318/0418 31016G22KT P6SM SCT035
     FM040000 31008KT P6SM FEW150
     FM040800 29004KT P6SM SKC
     FM041600 22009KT P6SM SKC=

USA.gov is the U.S. government's official web portal to all federal, state and local government web resources and services.